sensor_id;sensor_type;location;lat;lon;timestamp;pressure;altitude;pressure_sealevel;temperature;humidity
11444;BME280;5778;47.856;12.154;2022-08-19T00:00:31;95822.16;;;19.39;100.00
11444;BME280;5778;47.856;12.154;2022-08-19T00:03:00;95819.47;;;19.39;100.00
11444;BME280;5778;47.856;12.154;2022-08-19T00:05:27;95821.53;;;19.42;100.00
11444;BME280;5778;47.856;12.154;2022-08-19T00:07:54;95818.38;;;19.40;100.00
11444;BME280;5778;47.856;12.154;2022-08-19T00:10:21;95834.41;;;19.45;100.00
11444;BME280;5778;47.856;12.154;2022-08-19T00:12:49;95836.59;;;19.43;100.00
11444;BME280;5778;47.856;12.154;2022-08-19T00:15:20;95835.97;;;19.46;100.00
11444;BME280;5778;47.856;12.154;2022-08-19T00:17:48;95835.84;;;19.42;100.00
11444;BME280;5778;47.856;12.154;2022-08-19T00:20:20;95835.97;;;19.46;100.00
11444;BME280;5778;47.856;12.154;2022-08-19T00:22:48;95822.19;;;19.47;100.00
11444;BME280;5778;47.856;12.154;2022-08-19T00:25:15;95823.75;;;19.48;100.00
11444;BME280;5778;47.856;12.154;2022-08-19T00:27:43;95821.53;;;19.50;100.00
11444;BME280;5778;47.856;12.154;2022-08-19T00:30:11;95811.88;;;19.32;100.00
11444;BME280;5778;47.856;12.154;2022-08-19T00:32:38;95802.69;;;19.25;100.00
11444;BME280;5778;47.856;12.154;2022-08-19T00:35:06;95799.84;;;19.30;100.00
11444;BME280;5778;47.856;12.154;2022-08-19T00:37:36;95797.44;;;19.28;100.00
11444;BME280;5778;47.856;12.154;2022-08-19T00:40:05;95792.19;;;19.06;100.00
11444;BME280;5778;47.856;12.154;2022-08-19T00:42:32;95786.66;;;18.94;100.00
11444;BME280;5778;47.856;12.154;2022-08-19T00:44:59;95780.97;;;18.96;100.00
11444;BME280;5778;47.856;12.154;2022-08-19T00:47:26;95785.41;;;18.92;100.00
11444;BME280;5778;47.856;12.154;2022-08-19T00:49:56;95780.81;;;19.01;100.00
11444;BME280;5778;47.856;12.154;2022-08-19T00:52:26;95788.56;;;19.02;100.00
11444;BME280;5778;47.856;12.154;2022-08-19T00:54:58;95796.00;;;19.05;100.00
11444;BME280;5778;47.856;12.154;2022-08-19T00:57:28;95796.31;;;19.04;100.00
11444;BME280;5778;47.856;12.154;2022-08-19T00:59:58;95794.44;;;19.04;100.00
11444;BME280;5778;47.856;12.154;2022-08-19T01:02:26;95799.31;;;19.11;100.00
11444;BME280;5778;47.856;12.154;2022-08-19T01:04:53;95794.44;;;19.13;100.00
11444;BME280;5778;47.856;12.154;2022-08-19T01:07:21;95791.25;;;19.11;100.00
11444;BME280;5778;47.856;12.154;2022-08-19T01:09:48;95792.50;;;19.05;100.00
11444;BME280;5778;47.856;12.154;2022-08-19T01:12:18;95811.53;;;19.08;100.00
11444;BME280;5778;47.856;12.154;2022-08-19T01:14:45;95812.66;;;19.16;100.00
11444;BME280;5778;47.856;12.154;2022-08-19T01:17:13;95824.25;;;19.25;100.00
11444;BME280;5778;47.856;12.154;2022-08-19T01:19:42;95841.38;;;19.29;100.00
11444;BME280;5778;47.856;12.154;2022-08-19T01:22:15;95845.81;;;19.33;100.00
11444;BME280;5778;47.856;12.154;2022-08-19T01:24:45;95834.06;;;19.38;100.00
11444;BME280;5778;47.856;12.154;2022-08-19T01:27:12;95839.16;;;19.31;100.00
11444;BME280;5778;47.856;12.154;2022-08-19T01:29:40;95821.22;;;19.18;100.00
11444;BME280;5778;47.856;12.154;2022-08-19T01:32:11;95814.88;;;19.14;100.00
11444;BME280;5778;47.856;12.154;2022-08-19T01:34:39;95815.38;;;19.24;100.00
11444;BME280;5778;47.856;12.154;2022-08-19T01:37:08;95810.09;;;19.19;100.00
11444;BME280;5778;47.856;12.154;2022-08-19T01:39:38;95829.66;;;19.25;100.00
11444;BME280;5778;47.856;12.154;2022-08-19T01:42:08;95849.63;;;19.32;100.00
11444;BME280;5778;47.856;12.154;2022-08-19T01:44:36;95851.06;;;19.38;100.00
11444;BME280;5778;47.856;12.154;2022-08-19T01:47:04;95845.19;;;19.45;100.00
11444;BME280;5778;47.856;12.154;2022-08-19T01:49:32;95845.19;;;19.45;100.00
11444;BME280;5778;47.856;12.154;2022-08-19T01:52:00;95840.41;;;19.42;100.00
11444;BME280;5778;47.856;12.154;2022-08-19T01:54:28;95841.38;;;19.46;100.00
11444;BME280;5778;47.856;12.154;2022-08-19T01:56:59;95847.88;;;19.45;100.00
11444;BME280;5778;47.856;12.154;2022-08-19T01:59:29;95851.50;;;19.49;100.00
11444;BME280;5778;47.856;12.154;2022-08-19T02:01:57;95849.31;;;19.51;100.00
11444;BME280;5778;47.856;12.154;2022-08-19T02:04:24;95852.94;;;19.55;100.00
11444;BME280;5778;47.856;12.154;2022-08-19T02:06:52;95851.84;;;19.56;100.00
11444;BME280;5778;47.856;12.154;2022-08-19T02:09:19;95841.50;;;19.58;100.00
11444;BME280;5778;47.856;12.154;2022-08-19T02:11:46;95835.00;;;19.59;100.00
11444;BME280;5778;47.856;12.154;2022-08-19T02:14:14;95837.38;;;19.60;100.00
11444;BME280;5778;47.856;12.154;2022-08-19T02:16:42;95838.66;;;19.63;100.00
11444;BME280;5778;47.856;12.154;2022-08-19T02:19:10;95834.03;;;19.63;100.00
11444;BME280;5778;47.856;12.154;2022-08-19T02:21:37;95838.66;;;19.63;100.00
11444;BME280;5778;47.856;12.154;2022-08-19T02:24:04;95833.88;;;19.60;100.00
11444;BME280;5778;47.856;12.154;2022-08-19T02:26:31;95824.22;;;19.59;100.00
11444;BME280;5778;47.856;12.154;2022-08-19T02:28:59;95823.44;;;19.58;100.00
11444;BME280;5778;47.856;12.154;2022-08-19T02:31:26;95817.22;;;19.58;100.00
11444;BME280;5778;47.856;12.154;2022-08-19T02:33:56;95812.97;;;19.57;100.00
11444;BME280;5778;47.856;12.154;2022-08-19T02:36:24;95830.72;;;19.58;100.00
11444;BME280;5778;47.856;12.154;2022-08-19T02:38:52;95826.59;;;19.52;100.00
11444;BME280;5778;47.856;12.154;2022-08-19T02:41:20;95827.72;;;19.51;100.00
11444;BME280;5778;47.856;12.154;2022-08-19T02:43:48;95826.91;;;19.50;100.00
11444;BME280;5778;47.856;12.154;2022-08-19T02:46:18;95821.53;;;19.50;100.00
11444;BME280;5778;47.856;12.154;2022-08-19T02:48:47;95813.28;;;19.55;100.00
11444;BME280;5778;47.856;12.154;2022-08-19T02:51:21;95821.38;;;19.55;100.00
11444;BME280;5778;47.856;12.154;2022-08-19T02:53:48;95812.97;;;19.57;100.00
11444;BME280;5778;47.856;12.154;2022-08-19T02:56:17;95821.69;;;19.54;100.00
11444;BME280;5778;47.856;12.154;2022-08-19T02:58:44;95816.44;;;19.57;100.00
11444;BME280;5778;47.856;12.154;2022-08-19T03:01:19;95817.22;;;19.58;100.00
11444;BME280;5778;47.856;12.154;2022-08-19T03:03:47;95814.53;;;19.58;100.00
11444;BME280;5778;47.856;12.154;2022-08-19T03:06:15;95806.75;;;19.56;100.00
11444;BME280;5778;47.856;12.154;2022-08-19T03:08:46;95811.38;;;19.56;100.00
11444;BME280;5778;47.856;12.154;2022-08-19T03:11:16;95815.66;;;19.57;100.00
11444;BME280;5778;47.856;12.154;2022-08-19T03:13:43;95802.94;;;19.57;100.00
11444;BME280;5778;47.856;12.154;2022-08-19T03:16:11;95821.06;;;19.57;100.00
11444;BME280;5778;47.856;12.154;2022-08-19T03:18:39;95823.91;;;19.60;100.00
11444;BME280;5778;47.856;12.154;2022-08-19T03:21:07;95830.56;;;19.63;100.00
11444;BME280;5778;47.856;12.154;2022-08-19T03:23:34;95832.94;;;19.64;100.00
11444;BME280;5778;47.856;12.154;2022-08-19T03:26:05;95834.38;;;19.62;100.00
11444;BME280;5778;47.856;12.154;2022-08-19T03:28:33;95834.84;;;19.55;100.00
11444;BME280;5778;47.856;12.154;2022-08-19T03:31:02;95839.63;;;19.58;100.00
11444;BME280;5778;47.856;12.154;2022-08-19T03:33:30;95844.22;;;19.58;100.00
11444;BME280;5778;47.856;12.154;2022-08-19T03:36:07;95848.31;;;19.64;100.00
11444;BME280;5778;47.856;12.154;2022-08-19T03:38:36;95858.66;;;19.62;100.00
11444;BME280;5778;47.856;12.154;2022-08-19T03:41:09;95845.94;;;19.62;100.00
11444;BME280;5778;47.856;12.154;2022-08-19T03:43:37;95848.47;;;19.59;100.00
11444;BME280;5778;47.856;12.154;2022-08-19T03:46:06;95854.38;;;19.61;100.00
11444;BME280;5778;47.856;12.154;2022-08-19T03:48:35;95848.47;;;19.59;100.00
11444;BME280;5778;47.856;12.154;2022-08-19T03:51:02;95843.59;;;19.61;100.00
11444;BME280;5778;47.856;12.154;2022-08-19T03:53:31;95835.81;;;19.59;100.00
11444;BME280;5778;47.856;12.154;2022-08-19T03:55:59;95835.94;;;19.63;100.00
11444;BME280;5778;47.856;12.154;2022-08-19T03:58:29;95831.03;;;19.56;100.00
11444;BME280;5778;47.856;12.154;2022-08-19T04:00:56;95840.53;;;19.62;100.00
11444;BME280;5778;47.856;12.154;2022-08-19T04:03:24;95832.59;;;19.66;100.00
11444;BME280;5778;47.856;12.154;2022-08-19T04:05:52;95837.69;;;19.67;100.00
11444;BME280;5778;47.856;12.154;2022-08-19T04:08:19;95830.56;;;19.63;100.00
11444;BME280;5778;47.856;12.154;2022-08-19T04:10:48;95841.66;;;19.61;100.00
11444;BME280;5778;47.856;12.154;2022-08-19T04:13:17;95840.88;;;19.61;100.00
11444;BME280;5778;47.856;12.154;2022-08-19T04:15:46;95831.19;;;19.60;100.00
11444;BME280;5778;47.856;12.154;2022-08-19T04:18:13;95833.72;;;19.65;100.00
11444;BME280;5778;47.856;12.154;2022-08-19T04:20:42;95846.09;;;19.66;100.00
11444;BME280;5778;47.856;12.154;2022-08-19T04:23:09;95843.38;;;19.66;100.00
11444;BME280;5778;47.856;12.154;2022-08-19T04:25:38;95844.84;;;19.55;100.00
11444;BME280;5778;47.856;12.154;2022-08-19T04:28:06;95836.75;;;19.55;100.00
11444;BME280;5778;47.856;12.154;2022-08-19T04:30:39;95848.16;;;19.60;100.00
11444;BME280;5778;47.856;12.154;2022-08-19T04:33:09;95856.41;;;19.64;100.00
11444;BME280;5778;47.856;12.154;2022-08-19T04:35:38;95856.25;;;19.69;100.00
11444;BME280;5778;47.856;12.154;2022-08-19T04:38:05;95859.91;;;19.73;100.00
11444;BME280;5778;47.856;12.154;2022-08-19T04:40:33;95863.38;;;19.73;100.00
11444;BME280;5778;47.856;12.154;2022-08-19T04:43:18;95860.34;;;19.75;100.00
11444;BME280;5778;47.856;12.154;2022-08-19T04:45:46;95878.13;;;19.76;100.00
11444;BME280;5778;47.856;12.154;2022-08-19T04:48:15;95875.91;;;19.78;100.00
11444;BME280;5778;47.856;12.154;2022-08-19T04:50:43;95878.28;;;19.79;100.00
11444;BME280;5778;47.856;12.154;2022-08-19T04:53:10;95876.06;;;19.81;100.00
11444;BME280;5778;47.856;12.154;2022-08-19T04:55:39;95881.31;;;19.78;100.00
11444;BME280;5778;47.856;12.154;2022-08-19T04:58:06;95876.06;;;19.81;100.00
11444;BME280;5778;47.856;12.154;2022-08-19T05:00:34;95877.50;;;19.79;100.00
11444;BME280;5778;47.856;12.154;2022-08-19T05:03:04;95875.75;;;19.83;100.00
11444;BME280;5778;47.856;12.154;2022-08-19T05:05:33;95879.22;;;19.83;100.00
11444;BME280;5778;47.856;12.154;2022-08-19T05:07:59;95876.84;;;19.82;100.00
11444;BME280;5778;47.856;12.154;2022-08-19T05:10:27;95866.06;;;19.82;100.00
11444;BME280;5778;47.856;12.154;2022-08-19T05:12:55;95879.72;;;19.85;100.00
11444;BME280;5778;47.856;12.154;2022-08-19T05:15:23;95878.59;;;19.86;100.00
11444;BME280;5778;47.856;12.154;2022-08-19T05:17:50;95876.22;;;19.85;100.00
11444;BME280;5778;47.856;12.154;2022-08-19T05:20:37;95869.25;;;19.84;100.00
11444;BME280;5778;47.856;12.154;2022-08-19T05:23:21;95869.25;;;19.84;100.00
11444;BME280;5778;47.856;12.154;2022-08-19T05:25:49;95861.59;;;19.86;100.00
11444;BME280;5778;47.856;12.154;2022-08-19T05:28:17;95857.47;;;19.88;100.00
11444;BME280;5778;47.856;12.154;2022-08-19T05:30:44;95864.31;;;19.86;100.00
11444;BME280;5778;47.856;12.154;2022-08-19T05:33:11;95861.16;;;19.75;100.00
11444;BME280;5778;47.856;12.154;2022-08-19T05:35:40;95865.91;;;19.70;100.00
11444;BME280;5778;47.856;12.154;2022-08-19T05:38:10;95861.16;;;19.75;100.00
11444;BME280;5778;47.856;12.154;2022-08-19T05:40:39;95863.03;;;19.83;100.00
11444;BME280;5778;47.856;12.154;2022-08-19T05:43:07;95854.16;;;19.91;100.00
11444;BME280;5778;47.856;12.154;2022-08-19T05:45:43;95865.69;;;20.09;100.00
11444;BME280;5778;47.856;12.154;2022-08-19T05:48:10;95864.25;;;20.11;100.00
11444;BME280;5778;47.856;12.154;2022-08-19T05:50:40;95873.28;;;20.24;100.00
11444;BME280;5778;47.856;12.154;2022-08-19T05:53:08;95876.91;;;20.28;100.00
11444;BME280;5778;47.856;12.154;2022-08-19T05:55:40;95878.78;;;20.36;100.00
11444;BME280;5778;47.856;12.154;2022-08-19T05:58:07;95881.44;;;20.44;100.00
11444;BME280;5778;47.856;12.154;2022-08-19T06:00:35;95886.22;;;20.47;100.00
11444;BME280;5778;47.856;12.154;2022-08-19T06:03:03;95881.16;;;20.37;100.00
11444;BME280;5778;47.856;12.154;2022-08-19T06:05:41;95885.47;;;20.30;100.00
11444;BME280;5778;47.856;12.154;2022-08-19T06:08:08;95887.22;;;20.26;100.00
11444;BME280;5778;47.856;12.154;2022-08-19T06:10:36;95885.81;;;20.20;100.00
11444;BME280;5778;47.856;12.154;2022-08-19T06:13:03;95880.56;;;20.32;100.00
11444;BME280;5778;47.856;12.154;2022-08-19T06:15:31;95880.84;;;20.39;100.00
11444;BME280;5778;47.856;12.154;2022-08-19T06:17:58;95875.94;;;20.32;100.00
11444;BME280;5778;47.856;12.154;2022-08-19T06:20:59;95877.25;;;20.18;100.00
11444;BME280;5778;47.856;12.154;2022-08-19T06:23:28;95875.19;;;20.06;100.00
11444;BME280;5778;47.856;12.154;2022-08-19T06:26:33;95882.25;;;19.82;100.00
11444;BME280;5778;47.856;12.154;2022-08-19T06:29:02;95881.28;;;19.95;100.00
11444;BME280;5778;47.856;12.154;2022-08-19T06:31:31;95877.47;;;19.96;100.00
11444;BME280;5778;47.856;12.154;2022-08-19T06:34:00;95881.25;;;20.03;100.00
11444;BME280;5778;47.856;12.154;2022-08-19T06:36:38;95873.13;;;20.20;100.00
11444;BME280;5778;47.856;12.154;2022-08-19T06:39:08;95876.81;;;20.16;100.00
11444;BME280;5778;47.856;12.154;2022-08-19T06:41:36;95871.91;;;20.09;100.00
11444;BME280;5778;47.856;12.154;2022-08-19T06:44:03;95866.56;;;19.75;100.00
11444;BME280;5778;47.856;12.154;2022-08-19T06:46:38;95863.25;;;19.53;100.00
11444;BME280;5778;47.856;12.154;2022-08-19T06:49:09;95862.44;;;19.52;100.00
11444;BME280;5778;47.856;12.154;2022-08-19T06:51:41;95856.91;;;19.49;100.00
11444;BME280;5778;47.856;12.154;2022-08-19T06:54:09;95849.94;;;19.48;100.00
11444;BME280;5778;47.856;12.154;2022-08-19T06:56:45;95842.28;;;19.67;100.00
11444;BME280;5778;47.856;12.154;2022-08-19T06:59:14;95837.66;;;19.76;100.00
11444;BME280;5778;47.856;12.154;2022-08-19T07:01:43;95841.31;;;19.80;100.00
11444;BME280;5778;47.856;12.154;2022-08-19T07:04:11;95844.94;;;19.84;100.00
11444;BME280;5778;47.856;12.154;2022-08-19T07:07:08;95856.72;;;19.62;100.00
11444;BME280;5778;47.856;12.154;2022-08-19T07:09:36;95866.50;;;20.01;100.00
11444;BME280;5778;47.856;12.154;2022-08-19T07:12:05;95864.25;;;20.11;100.00
11444;BME280;5778;47.856;12.154;2022-08-19T07:14:33;95857.53;;;20.34;100.00
11444;BME280;5778;47.856;12.154;2022-08-19T07:17:05;95877.31;;;20.47;100.00
11444;BME280;5778;47.856;12.154;2022-08-19T07:19:47;95882.94;;;20.25;100.00
11444;BME280;5778;47.856;12.154;2022-08-19T07:22:17;95873.47;;;20.10;100.00
11444;BME280;5778;47.856;12.154;2022-08-19T07:24:47;95871.09;;;20.09;100.00
11444;BME280;5778;47.856;12.154;2022-08-19T07:27:20;95874.31;;;19.94;100.00
11444;BME280;5778;47.856;12.154;2022-08-19T07:29:48;95884.78;;;19.78;100.00
11444;BME280;5778;47.856;12.154;2022-08-19T07:32:15;95881.50;;;19.56;100.00
11444;BME280;5778;47.856;12.154;2022-08-19T07:34:42;95887.81;;;19.68;100.00
11444;BME280;5778;47.856;12.154;2022-08-19T07:37:19;95884.66;;;19.66;100.00
11444;BME280;5778;47.856;12.154;2022-08-19T07:39:47;95882.91;;;19.79;100.00
11444;BME280;5778;47.856;12.154;2022-08-19T07:42:14;95882.41;;;19.85;100.00
11444;BME280;5778;47.856;12.154;2022-08-19T07:44:46;95887.50;;;19.78;100.00
11444;BME280;5778;47.856;12.154;2022-08-19T07:47:25;95894.34;;;19.50;100.00
11444;BME280;5778;47.856;12.154;2022-08-19T07:50:12;95897.19;;;19.71;100.00
11444;BME280;5778;47.856;12.154;2022-08-19T07:52:41;95878.75;;;19.90;100.00
11444;BME280;5778;47.856;12.154;2022-08-19T07:55:10;95863.78;;;20.09;100.00
11444;BME280;5778;47.856;12.154;2022-08-19T07:57:37;95856.16;;;20.11;100.00
11444;BME280;5778;47.856;12.154;2022-08-19T08:00:06;95879.38;;;19.87;100.00
11444;BME280;5778;47.856;12.154;2022-08-19T08:02:37;95892.59;;;19.54;100.00
11444;BME280;5778;47.856;12.154;2022-08-19T08:05:08;95899.25;;;19.65;100.00
11444;BME280;5778;47.856;12.154;2022-08-19T08:07:54;95892.81;;;20.04;100.00
11444;BME280;5778;47.856;12.154;2022-08-19T08:10:38;95887.03;;;19.68;100.00
11444;BME280;5778;47.856;12.154;2022-08-19T08:13:05;95884.41;;;20.14;100.00
11444;BME280;5778;47.856;12.154;2022-08-19T08:15:35;95895.13;;;20.48;100.00
11444;BME280;5778;47.856;12.154;2022-08-19T08:18:04;95893.13;;;20.65;100.00
11444;BME280;5778;47.856;12.154;2022-08-19T08:20:41;95900.09;;;20.66;100.00
11444;BME280;5778;47.856;12.154;2022-08-19T08:23:10;95906.16;;;20.63;100.00
11444;BME280;5778;47.856;12.154;2022-08-19T08:26:13;95901.66;;;20.76;100.00
11444;BME280;5778;47.856;12.154;2022-08-19T08:28:41;95893.81;;;20.83;100.00
11444;BME280;5778;47.856;12.154;2022-08-19T08:31:09;95887.03;;;20.77;100.00
11444;BME280;5778;47.856;12.154;2022-08-19T08:33:36;95890.41;;;21.03;100.00
11444;BME280;5778;47.856;12.154;2022-08-19T08:36:16;95886.69;;;21.07;100.00
11444;BME280;5778;47.856;12.154;2022-08-19T08:38:46;95878.53;;;21.16;100.00
11444;BME280;5778;47.856;12.154;2022-08-19T08:41:20;95881.69;;;21.18;100.00
11444;BME280;5778;47.856;12.154;2022-08-19T08:43:51;95869.94;;;20.93;100.00
11444;BME280;5778;47.856;12.154;2022-08-19T08:46:35;95870.59;;;20.90;100.00
11444;BME280;5778;47.856;12.154;2022-08-19T08:49:26;95864.84;;;21.53;100.00
11444;BME280;5778;47.856;12.154;2022-08-19T08:52:00;95885.72;;;21.53;100.00
11444;BME280;5778;47.856;12.154;2022-08-19T08:54:35;95887.38;;;21.45;100.00
11444;BME280;5778;47.856;12.154;2022-08-19T09:00:18;95890.06;;;21.66;100.00
11444;BME280;5778;47.856;12.154;2022-08-19T09:02:46;95885.25;;;21.30;100.00
11444;BME280;5778;47.856;12.154;2022-08-19T09:05:16;95890.81;;;21.54;100.00
11444;BME280;5778;47.856;12.154;2022-08-19T09:08:04;95896.97;;;21.96;100.00
11444;BME280;5778;47.856;12.154;2022-08-19T09:10:38;95906.44;;;21.90;100.00
11444;BME280;5778;47.856;12.154;2022-08-19T09:13:14;95907.09;;;21.66;100.00
11444;BME280;5778;47.856;12.154;2022-08-19T09:15:51;95905.00;;;21.72;100.00
11444;BME280;5778;47.856;12.154;2022-08-19T09:18:20;95905.31;;;21.91;100.00
11444;BME280;5778;47.856;12.154;2022-08-19T09:20:47;95916.81;;;21.47;100.00
11444;BME280;5778;47.856;12.154;2022-08-19T09:23:17;95905.50;;;21.45;100.00
11444;BME280;5778;47.856;12.154;2022-08-19T09:29:00;95884.19;;;22.29;100.00
11444;BME280;5778;47.856;12.154;2022-08-19T09:31:29;95888.56;;;22.66;100.00
11444;BME280;5778;47.856;12.154;2022-08-19T09:33:58;95884.81;;;22.82;100.00
11444;BME280;5778;47.856;12.154;2022-08-19T09:36:55;95884.94;;;22.74;100.00
11444;BME280;5778;47.856;12.154;2022-08-19T09:39:25;95878.28;;;22.59;100.00
11444;BME280;5778;47.856;12.154;2022-08-19T09:41:53;95879.09;;;22.27;100.00
11444;BME280;5778;47.856;12.154;2022-08-19T09:44:21;95878.44;;;22.30;100.00
11444;BME280;5778;47.856;12.154;2022-08-19T09:46:50;95875.66;;;22.99;100.00
11444;BME280;5778;47.856;12.154;2022-08-19T09:49:34;95882.06;;;23.06;100.00
11444;BME280;5778;47.856;12.154;2022-08-19T09:52:01;95884.66;;;23.39;100.00
11444;BME280;5778;47.856;12.154;2022-08-19T09:54:29;95891.47;;;22.85;100.00
11444;BME280;5778;47.856;12.154;2022-08-19T09:57:01;95886.28;;;22.68;100.00
11444;BME280;5778;47.856;12.154;2022-08-19T09:59:29;95879.25;;;23.03;100.00
11444;BME280;5778;47.856;12.154;2022-08-19T10:01:56;95867.06;;;22.97;100.00
11444;BME280;5778;47.856;12.154;2022-08-19T10:04:24;95866.88;;;22.66;100.00
11444;BME280;5778;47.856;12.154;2022-08-19T10:07:12;95854.53;;;22.44;100.00
11444;BME280;5778;47.856;12.154;2022-08-19T10:09:39;95855.31;;;22.93;100.00
11444;BME280;5778;47.856;12.154;2022-08-19T10:12:09;95854.06;;;23.02;100.00
11444;BME280;5778;47.856;12.154;2022-08-19T10:14:39;95859.75;;;22.85;100.00
11444;BME280;5778;47.856;12.154;2022-08-19T10:17:10;95857.47;;;22.99;100.00
11444;BME280;5778;47.856;12.154;2022-08-19T10:19:38;95859.69;;;23.61;100.00
11444;BME280;5778;47.856;12.154;2022-08-19T10:22:06;95864.31;;;23.72;100.00
11444;BME280;5778;47.856;12.154;2022-08-19T10:24:34;95864.53;;;23.95;100.00
11444;BME280;5778;47.856;12.154;2022-08-19T10:27:11;95862.53;;;24.35;100.00
11444;BME280;5778;47.856;12.154;2022-08-19T10:29:41;95876.19;;;24.38;100.00
11444;BME280;5778;47.856;12.154;2022-08-19T10:32:08;95870.34;;;23.81;100.00
11444;BME280;5778;47.856;12.154;2022-08-19T10:34:37;95866.91;;;24.39;100.00
11444;BME280;5778;47.856;12.154;2022-08-19T10:37:19;95858.44;;;23.31;100.00
11444;BME280;5778;47.856;12.154;2022-08-19T10:39:46;95856.44;;;23.55;100.00
11444;BME280;5778;47.856;12.154;2022-08-19T10:42:14;95856.56;;;23.59;100.00
11444;BME280;5778;47.856;12.154;2022-08-19T10:44:44;95845.56;;;23.55;100.00
11444;BME280;5778;47.856;12.154;2022-08-19T10:47:37;95836.63;;;23.27;100.00
11444;BME280;5778;47.856;12.154;2022-08-19T10:50:13;95837.56;;;23.47;100.00
11444;BME280;5778;47.856;12.154;2022-08-19T10:53:07;95828.84;;;23.26;100.00
11444;BME280;5778;47.856;12.154;2022-08-19T10:55:45;95833.91;;;23.39;100.00
11444;BME280;5778;47.856;12.154;2022-08-19T10:58:29;95829.50;;;23.62;100.00
11444;BME280;5778;47.856;12.154;2022-08-19T11:00:58;95822.97;;;23.79;100.00
11444;BME280;5778;47.856;12.154;2022-08-19T11:03:26;95826.19;;;23.96;100.00
11444;BME280;5778;47.856;12.154;2022-08-19T11:09:13;95818.66;;;24.52;100.00
11444;BME280;5778;47.856;12.154;2022-08-19T11:11:41;95814.97;;;24.29;100.00
11444;BME280;5778;47.856;12.154;2022-08-19T11:14:10;95810.16;;;24.22;100.00
11444;BME280;5778;47.856;12.154;2022-08-19T11:16:44;95803.69;;;24.11;100.00
11444;BME280;5778;47.856;12.154;2022-08-19T11:19:12;95800.44;;;24.21;100.00
11444;BME280;5778;47.856;12.154;2022-08-19T11:21:43;95794.91;;;24.99;100.00
11444;BME280;5778;47.856;12.154;2022-08-19T11:24:13;95795.00;;;25.21;100.00
11444;BME280;5778;47.856;12.154;2022-08-19T11:29:50;95790.59;;;25.70;100.00
11444;BME280;5778;47.856;12.154;2022-08-19T11:32:19;95789.44;;;25.14;100.00
11444;BME280;5778;47.856;12.154;2022-08-19T11:34:46;95781.50;;;26.04;100.00
11444;BME280;5778;47.856;12.154;2022-08-19T11:37:34;95784.41;;;26.37;100.00
11444;BME280;5778;47.856;12.154;2022-08-19T11:40:05;95780.25;;;26.21;100.00
11444;BME280;5778;47.856;12.154;2022-08-19T11:42:32;95788.25;;;25.31;100.00
11444;BME280;5778;47.856;12.154;2022-08-19T11:45:23;95789.88;;;26.15;100.00
11444;BME280;5778;47.856;12.154;2022-08-19T11:47:51;95792.66;;;25.77;100.00
11444;BME280;5778;47.856;12.154;2022-08-19T11:50:53;95792.91;;;25.68;100.00
11444;BME280;5778;47.856;12.154;2022-08-19T11:53:22;95787.28;;;24.89;100.00
11444;BME280;5778;47.856;12.154;2022-08-19T11:55:54;95778.28;;;24.85;100.00
11444;BME280;5778;47.856;12.154;2022-08-19T11:58:23;95788.16;;;24.74;100.00
11444;BME280;5778;47.856;12.154;2022-08-19T12:00:50;95785.16;;;24.48;100.00
11444;BME280;5778;47.856;12.154;2022-08-19T12:03:19;95790.56;;;25.13;100.00
11444;BME280;5778;47.856;12.154;2022-08-19T12:06:03;95784.66;;;24.58;100.00
11444;BME280;5778;47.856;12.154;2022-08-19T12:08:31;95783.94;;;24.95;100.00
11444;BME280;5778;47.856;12.154;2022-08-19T12:10:58;95787.41;;;24.77;100.00
11444;BME280;5778;47.856;12.154;2022-08-19T12:13:26;95788.16;;;24.74;100.00
11444;BME280;5778;47.856;12.154;2022-08-19T12:16:21;95791.75;;;24.47;100.00
11444;BME280;5778;47.856;12.154;2022-08-19T12:22:09;95800.16;;;24.42;100.00
11444;BME280;5778;47.856;12.154;2022-08-19T12:24:36;95801.38;;;24.29;100.00
11444;BME280;5778;47.856;12.154;2022-08-19T12:27:05;95798.91;;;24.55;100.00
11444;BME280;5778;47.856;12.154;2022-08-19T12:29:32;95795.69;;;24.34;100.00
11444;BME280;5778;47.856;12.154;2022-08-19T12:31:59;95796.50;;;24.19;100.00
11444;BME280;5778;47.856;12.154;2022-08-19T12:34:28;95801.06;;;24.15;100.00
11444;BME280;5778;47.856;12.154;2022-08-19T12:37:14;95804.34;;;24.55;100.00
11444;BME280;5778;47.856;12.154;2022-08-19T12:39:43;95803.50;;;24.35;100.00
11444;BME280;5778;47.856;12.154;2022-08-19T12:42:11;95802.72;;;24.35;100.00
11444;BME280;5778;47.856;12.154;2022-08-19T12:44:40;95805.16;;;24.09;100.00
11444;BME280;5778;47.856;12.154;2022-08-19T12:47:09;95805.28;;;23.85;100.00
11444;BME280;5778;47.856;12.154;2022-08-19T12:49:46;95800.94;;;23.96;100.00
11444;BME280;5778;47.856;12.154;2022-08-19T12:52:16;95808.84;;;23.73;100.00
11444;BME280;5778;47.856;12.154;2022-08-19T12:54:46;95807.84;;;23.93;100.00
11444;BME280;5778;47.856;12.154;2022-08-19T12:57:27;95815.56;;;23.91;100.00
11444;BME280;5778;47.856;12.154;2022-08-19T12:59:59;95812.16;;;24.25;100.00
11444;BME280;5778;47.856;12.154;2022-08-19T13:02:28;95815.00;;;24.44;100.00
11444;BME280;5778;47.856;12.154;2022-08-19T13:04:57;95814.63;;;24.15;100.00
11444;BME280;5778;47.856;12.154;2022-08-19T13:08:03;95812.31;;;23.86;100.00
11444;BME280;5778;47.856;12.154;2022-08-19T13:10:33;95818.22;;;24.03;100.00
11444;BME280;5778;47.856;12.154;2022-08-19T13:13:03;95817.06;;;23.89;100.00
11444;BME280;5778;47.856;12.154;2022-08-19T13:16:00;95826.69;;;24.02;100.00
11444;BME280;5778;47.856;12.154;2022-08-19T13:21:51;95823.56;;;24.00;100.00
11444;BME280;5778;47.856;12.154;2022-08-19T13:24:21;95816.03;;;24.09;100.00
11444;BME280;5778;47.856;12.154;2022-08-19T13:26:49;95821.91;;;23.95;100.00
11444;BME280;5778;47.856;12.154;2022-08-19T13:29:16;95814.66;;;23.87;100.00